createdAt,value
2023-05-22T00:01:12.470Z,97641.19
2023-05-22T00:03:39.352Z,97640.75
2023-05-22T00:06:10.342Z,97639.38
2023-05-22T00:08:37.264Z,97640.50
2023-05-22T00:11:04.739Z,97635.28
2023-05-22T00:13:31.848Z,97624.56
2023-05-22T00:15:58.524Z,97625.38
2023-05-22T00:18:27.342Z,97636.53
2023-05-22T00:20:54.477Z,97634.13
2023-05-22T00:23:22.110Z,97623.53
2023-05-22T00:25:50.036Z,97623.44
2023-05-22T00:28:16.786Z,97612.50
2023-05-22T00:30:43.508Z,97604.97
2023-05-22T00:33:10.270Z,97617.50
2023-05-22T00:35:37.014Z,97614.31
2023-05-22T00:38:05.772Z,97606.00
2023-05-22T00:40:32.790Z,97605.19
2023-05-22T00:43:00.658Z,97608.38
2023-05-22T00:45:28.076Z,97595.16
2023-05-22T00:47:54.948Z,97608.00
2023-05-22T00:50:21.737Z,97601.31
2023-05-22T00:52:48.658Z,97608.94
2023-05-22T00:55:16.931Z,97613.72
2023-05-22T00:57:43.876Z,97607.69
2023-05-22T01:00:11.491Z,97611.22
2023-05-22T01:02:38.456Z,97593.22
2023-05-22T01:05:11.579Z,97588.06
2023-05-22T01:07:38.267Z,97587.63
2023-05-22T01:10:06.452Z,97586.81
2023-05-22T01:13:01.131Z,97585.47
2023-05-22T01:15:33.514Z,97595.25
2023-05-22T01:18:22.671Z,97595.47
2023-05-22T01:21:06.472Z,97595.69
2023-05-22T01:23:36.789Z,97593.63
2023-05-22T01:26:34.334Z,97595.56
2023-05-22T01:29:06.869Z,97597.84
2023-05-22T01:31:38.365Z,97567.28
2023-05-22T01:34:07.512Z,97594.50
2023-05-22T01:36:37.249Z,97574.19
2023-05-22T01:39:06.784Z,97601.78
2023-05-22T01:41:34.385Z,97594.13
2023-05-22T01:44:02.359Z,97590.22
2023-05-22T01:46:30.549Z,97587.69
2023-05-22T01:48:58.244Z,97589.50
2023-05-22T01:51:34.143Z,97597.91
2023-05-22T01:54:09.888Z,97594.13
2023-05-22T01:56:44.426Z,97594.94
2023-05-22T01:59:21.488Z,97589.69
2023-05-22T02:01:51.886Z,97590.44
2023-05-22T02:04:23.319Z,97594.97
2023-05-22T02:06:53.881Z,97589.50
2023-05-22T02:09:23.597Z,97570.53
2023-05-22T02:11:51.440Z,97583.75
2023-05-22T02:14:18.790Z,97581.56
2023-05-22T02:16:47.864Z,97589.63
2023-05-22T02:19:15.467Z,97579.28
2023-05-22T02:21:42.790Z,97590.94
2023-05-22T02:24:09.985Z,97595.59
2023-05-22T02:26:37.850Z,97592.88
2023-05-22T02:29:04.952Z,97591.00
2023-05-22T02:31:31.729Z,97587.19
2023-05-22T02:33:58.652Z,97593.09
2023-05-22T02:36:26.418Z,97585.44
2023-05-22T02:38:53.154Z,97586.63
2023-05-22T02:41:19.970Z,97576.25
2023-05-22T02:43:46.670Z,97585.50
2023-05-22T02:46:13.544Z,97572.06
2023-05-22T02:48:40.872Z,97580.25
2023-05-22T02:51:07.645Z,97591.94
2023-05-22T02:53:35.573Z,97591.16
2023-05-22T02:56:03.445Z,97571.13
2023-05-22T02:58:30.174Z,97560.88
2023-05-22T03:00:57.208Z,97580.25
2023-05-22T03:03:25.703Z,97581.50
2023-05-22T03:05:58.616Z,97585.03
2023-05-22T03:08:28.522Z,97555.00
2023-05-22T03:10:59.847Z,97585.50
2023-05-22T03:13:26.692Z,97580.03
2023-05-22T03:15:53.538Z,97575.06
2023-05-22T03:18:20.433Z,97567.41
2023-05-22T03:20:47.280Z,97574.13
2023-05-22T03:23:14.063Z,97574.59
2023-05-22T03:25:41.904Z,97575.06
2023-05-22T03:28:08.693Z,97572.69
2023-05-22T03:30:36.482Z,97570.88
2023-05-22T03:33:03.311Z,97572.53
2023-05-22T03:35:29.973Z,97565.47
2023-05-22T03:37:56.824Z,97581.31
2023-05-22T03:40:23.591Z,97565.75
2023-05-22T03:42:50.305Z,97563.09
2023-05-22T03:45:17.115Z,97571.91
2023-05-22T03:47:43.888Z,97561.75
2023-05-22T03:50:11.286Z,97560.53
2023-05-22T03:52:38.448Z,97551.94
2023-05-22T03:55:06.503Z,97568.47
2023-05-22T03:57:33.245Z,97561.47
2023-05-22T04:00:10.038Z,97566.22
2023-05-22T04:02:39.580Z,97565.72
2023-05-22T04:05:08.387Z,97562.53
2023-05-22T04:07:35.205Z,97561.56
2023-05-22T04:10:03.697Z,97563.75
2023-05-22T04:12:30.463Z,97558.38
2023-05-22T04:14:57.163Z,97558.72
2023-05-22T04:17:24.070Z,97559.41
2023-05-22T04:19:51.027Z,97562.16
2023-05-22T04:22:17.822Z,97558.34
2023-05-22T04:24:44.636Z,97556.78
2023-05-22T04:27:11.394Z,97556.13
2023-05-22T04:29:38.177Z,97561.41
2023-05-22T04:32:06.492Z,97559.47
2023-05-22T04:34:33.921Z,97561.06
2023-05-22T04:37:00.718Z,97561.50
2023-05-22T04:39:27.607Z,97554.59
2023-05-22T04:41:54.628Z,97548.91
2023-05-22T04:44:24.119Z,97557.47
2023-05-22T04:46:51.361Z,97551.84
2023-05-22T04:49:18.320Z,97551.94
2023-05-22T04:51:45.044Z,97552.28
2023-05-22T04:54:11.917Z,97529.63
2023-05-22T04:56:38.639Z,97551.94
2023-05-22T04:59:09.487Z,97553.78
2023-05-22T05:01:38.334Z,97533.00
2023-05-22T05:04:05.156Z,97544.31
2023-05-22T05:06:32.065Z,97543.03
2023-05-22T05:08:59.087Z,97539.53
2023-05-22T05:11:26.288Z,97544.38
2023-05-22T05:13:53.012Z,97549.94
2023-05-22T05:16:19.872Z,97545.34
2023-05-22T05:18:46.742Z,97539.56
2023-05-22T05:21:13.756Z,97547.78
2023-05-22T05:23:43.101Z,97549.56
2023-05-22T05:26:09.919Z,97534.13
2023-05-22T05:28:40.471Z,97523.44
2023-05-22T05:31:07.985Z,97546.78
2023-05-22T05:33:34.704Z,97549.59
2023-05-22T05:36:01.423Z,97548.81
2023-05-22T05:38:28.275Z,97537.72
2023-05-22T05:40:55.159Z,97535.03
2023-05-22T05:43:22.208Z,97541.34
2023-05-22T05:45:49.019Z,97535.03
2023-05-22T05:48:15.724Z,97543.31
2023-05-22T05:50:42.832Z,97527.94
2023-05-22T05:53:09.657Z,97527.13
2023-05-22T05:55:36.373Z,97545.31
2023-05-22T05:58:03.069Z,97537.41
2023-05-22T06:00:29.915Z,97538.19
2023-05-22T06:02:56.835Z,97538.19
2023-05-22T06:05:23.719Z,97542.53
2023-05-22T06:07:50.728Z,97539.78
2023-05-22T06:10:17.519Z,97524.72
2023-05-22T06:12:44.406Z,97530.25
2023-05-22T06:15:13.337Z,97531.84
2023-05-22T06:17:40.284Z,97528.66
2023-05-22T06:20:08.469Z,97527.84
2023-05-22T06:22:35.176Z,97529.41
2023-05-22T06:25:02.014Z,97528.63
2023-05-22T06:27:29.019Z,97534.97
2023-05-22T06:29:56.613Z,97528.19
2023-05-22T06:32:23.661Z,97500.53
2023-05-22T06:34:50.566Z,97528.63
2023-05-22T06:37:17.694Z,97515.94
2023-05-22T06:39:44.575Z,97527.84
2023-05-22T06:42:11.408Z,97529.88
2023-05-22T06:44:40.169Z,97529.50
2023-05-22T06:47:07.180Z,97534.25
2023-05-22T06:49:33.966Z,97527.53
2023-05-22T06:52:01.471Z,97539.41
2023-05-22T06:54:30.796Z,97534.19
2023-05-22T06:56:57.747Z,97528.59
2023-05-22T06:59:24.508Z,97525.03
2023-05-22T07:01:51.609Z,97533.78
2023-05-22T07:04:18.488Z,97531.81
2023-05-22T07:06:48.843Z,97537.41
2023-05-22T07:09:16.061Z,97534.66
2023-05-22T07:11:44.080Z,97546.91
2023-05-22T07:14:12.782Z,97529.50
2023-05-22T07:16:40.707Z,97506.16
2023-05-22T07:19:08.940Z,97530.25
2023-05-22T07:21:36.311Z,97535.81
2023-05-22T07:24:08.396Z,97537.00
2023-05-22T07:26:36.399Z,97521.19
2023-05-22T07:29:03.679Z,97536.22
2023-05-22T07:31:34.586Z,97548.50
2023-05-22T07:34:01.709Z,97537.38
2023-05-22T07:36:28.456Z,97553.19
2023-05-22T07:38:55.281Z,97546.06
2023-05-22T07:41:22.996Z,97545.31
2023-05-22T07:43:50.308Z,97538.59
2023-05-22T07:46:17.186Z,97550.06
2023-05-22T07:48:44.197Z,97535.03
2023-05-22T07:51:10.984Z,97540.97
2023-05-22T07:53:37.745Z,97539.75
2023-05-22T07:56:04.686Z,97527.09
2023-05-22T07:58:31.599Z,97534.63
2023-05-22T08:00:58.566Z,97526.28
2023-05-22T08:03:25.661Z,97521.53
2023-05-22T08:05:52.552Z,97509.72
2023-05-22T08:08:19.555Z,97531.88
2023-05-22T08:11:02.368Z,97534.25
2023-05-22T08:13:29.577Z,97538.19
2023-05-22T08:16:00.253Z,97547.59
2023-05-22T08:18:29.530Z,97537.78
2023-05-22T08:20:56.845Z,97534.16
2023-05-22T08:23:23.620Z,97536.44
2023-05-22T08:25:50.450Z,97537.13
2023-05-22T08:28:17.526Z,97541.47
2023-05-22T08:30:44.282Z,97543.03
2023-05-22T08:33:12.459Z,97538.25
2023-05-22T08:35:39.843Z,97538.91
2023-05-22T08:38:06.693Z,97560.91
2023-05-22T08:40:38.686Z,97546.69
2023-05-22T08:43:06.914Z,97545.91
2023-05-22T08:45:34.610Z,97534.56
2023-05-22T08:48:06.434Z,97543.28
2023-05-22T08:50:37.249Z,97542.53
2023-05-22T08:53:08.247Z,97541.84
2023-05-22T08:55:35.350Z,97543.44
2023-05-22T08:58:02.921Z,97516.56
2023-05-22T09:00:30.354Z,97538.38
2023-05-22T09:02:58.120Z,97530.03
2023-05-22T09:05:26.958Z,97555.75
2023-05-22T09:08:02.716Z,97531.69
2023-05-22T09:10:36.072Z,97515.50
2023-05-22T09:13:11.561Z,97543.19
2023-05-22T09:15:38.704Z,97551.06
2023-05-22T09:18:06.928Z,97538.72
2023-05-22T09:20:39.326Z,97543.38
2023-05-22T09:23:18.168Z,97531.41
2023-05-22T09:25:45.735Z,97522.38
2023-05-22T09:28:13.378Z,97514.34
2023-05-22T09:30:42.853Z,97532.22
2023-05-22T09:33:13.131Z,97523.63
2023-05-22T09:35:40.191Z,97526.81
2023-05-22T09:38:07.113Z,97531.59
2023-05-22T09:40:35.328Z,97517.78
2023-05-22T09:43:06.829Z,97533.84
2023-05-22T09:45:36.249Z,97519.22
2023-05-22T09:48:06.973Z,97529.97
2023-05-22T09:50:33.977Z,97518.25
2023-05-22T09:53:03.599Z,97522.25
2023-05-22T09:55:31.136Z,97530.50
2023-05-22T09:58:00.043Z,97518.22
2023-05-22T10:00:28.264Z,97504.81
2023-05-22T10:03:09.770Z,97485.06
2023-05-22T10:05:39.425Z,97506.00
2023-05-22T10:08:11.279Z,97509.19
2023-05-22T10:10:39.540Z,97502.44
2023-05-22T10:13:08.103Z,97503.66
2023-05-22T10:15:35.754Z,97497.31
2023-05-22T10:18:03.300Z,97499.34
2023-05-22T10:20:31.035Z,97506.84
2023-05-22T10:22:57.809Z,97494.53
2023-05-22T10:25:25.933Z,97476.72
2023-05-22T10:27:54.030Z,97506.34
2023-05-22T10:30:46.668Z,97500.41
2023-05-22T10:33:26.036Z,97496.47
2023-05-22T10:36:05.006Z,97448.88
2023-05-22T10:39:01.431Z,97489.31
2023-05-22T10:41:28.591Z,97479.88
2023-05-22T10:43:57.201Z,97452.25
2023-05-22T10:46:24.230Z,97487.06
2023-05-22T10:48:54.388Z,97477.19
2023-05-22T10:51:23.439Z,97478.78
2023-05-22T10:54:02.670Z,97490.25
2023-05-22T10:56:36.404Z,97481.97
2023-05-22T10:59:06.294Z,97476.03
2023-05-22T11:01:38.560Z,97477.56
2023-05-22T11:04:07.108Z,97490.97
2023-05-22T11:06:37.765Z,97466.91
2023-05-22T11:09:31.560Z,97481.97
2023-05-22T11:12:17.977Z,97464.19
2023-05-22T11:14:57.072Z,97462.22
2023-05-22T11:17:28.039Z,97480.00
2023-05-22T11:20:05.805Z,97500.91
2023-05-22T11:22:41.660Z,97461.41
2023-05-22T11:25:19.164Z,97467.78
2023-05-22T11:27:47.848Z,97473.31
2023-05-22T11:30:16.536Z,97459.09
2023-05-22T11:32:45.387Z,97461.81
2023-05-22T11:35:19.437Z,97448.78
2023-05-22T11:37:47.601Z,97431.78
2023-05-22T11:40:17.066Z,97445.63
2023-05-22T11:42:44.454Z,97427.88
2023-05-22T11:45:11.805Z,97435.38
2023-05-22T11:47:39.402Z,97443.31
2023-05-22T11:50:09.139Z,97430.63
2023-05-22T11:52:38.294Z,97460.28
2023-05-22T11:55:06.105Z,97441.31
2023-05-22T11:57:33.313Z,97431.03
2023-05-22T12:00:00.063Z,97437.81
2023-05-22T12:02:27.372Z,97433.44
2023-05-22T12:04:58.335Z,97440.91
2023-05-22T12:07:29.425Z,97438.94
2023-05-22T12:09:57.487Z,97453.59
2023-05-22T12:12:27.346Z,97416.00
2023-05-22T12:14:54.224Z,97453.59
2023-05-22T12:17:20.881Z,97447.25
2023-05-22T12:19:47.870Z,97428.31
2023-05-22T12:22:14.785Z,97438.56
2023-05-22T12:24:42.796Z,97436.19
2023-05-22T12:27:10.921Z,97438.94
2023-05-22T12:29:38.974Z,97438.16
2023-05-22T12:32:08.859Z,97423.53
2023-05-22T12:34:36.815Z,97418.41
2023-05-22T12:37:03.708Z,97435.00
2023-05-22T12:39:30.691Z,97422.34
2023-05-22T12:41:57.463Z,97427.50
2023-05-22T12:44:24.132Z,97425.13
2023-05-22T12:46:52.556Z,97403.78
2023-05-22T12:49:20.324Z,97405.75
2023-05-22T12:51:47.078Z,97408.91
2023-05-22T12:54:15.515Z,97411.28
2023-05-22T12:56:42.390Z,97400.59
2023-05-22T12:59:13.551Z,97408.50
2023-05-22T13:01:41.433Z,97393.91
2023-05-22T13:04:08.202Z,97396.28
2023-05-22T13:06:35.186Z,97392.31
2023-05-22T13:09:01.980Z,97393.88
2023-05-22T13:11:31.542Z,97395.06
2023-05-22T13:14:05.623Z,97387.16
2023-05-22T13:16:32.409Z,97387.13
2023-05-22T13:19:03.834Z,97399.28
2023-05-22T13:21:31.718Z,97392.97
2023-05-22T13:23:58.614Z,97390.19
2023-05-22T13:26:26.394Z,97396.16
2023-05-22T13:28:53.198Z,97387.09
2023-05-22T13:31:28.649Z,97383.94
2023-05-22T13:34:01.597Z,97384.78
2023-05-22T13:36:50.792Z,97373.34
2023-05-22T13:39:39.445Z,97384.78
2023-05-22T13:42:07.668Z,97392.22
2023-05-22T13:44:36.665Z,97378.03
2023-05-22T13:47:06.649Z,97383.13
2023-05-22T13:49:33.322Z,97358.72
2023-05-22T13:52:00.521Z,97344.47
2023-05-22T13:54:27.831Z,97371.25
2023-05-22T13:56:56.829Z,97377.97
2023-05-22T13:59:28.252Z,97357.41
2023-05-22T14:01:55.207Z,97355.47
2023-05-22T14:04:21.972Z,97361.75
2023-05-22T14:06:48.723Z,97366.50
2023-05-22T14:09:15.550Z,97350.72
2023-05-22T14:11:42.324Z,97360.94
2023-05-22T14:26:53.255Z,97272.94
2023-05-22T14:29:27.228Z,97359.78
2023-05-22T14:32:01.475Z,97340.44
2023-05-22T14:34:28.361Z,97361.41
2023-05-22T14:36:56.914Z,97337.34
2023-05-22T14:39:27.514Z,97341.69
2023-05-22T14:41:58.889Z,97335.81
2023-05-22T14:44:26.630Z,97342.13
2023-05-22T14:46:54.780Z,97336.59
2023-05-22T14:49:21.594Z,97348.88
2023-05-22T14:51:49.547Z,97347.69
2023-05-22T14:54:20.725Z,97355.19
2023-05-22T14:56:48.168Z,97337.41
2023-05-22T14:59:15.594Z,97340.59
2023-05-22T15:01:42.422Z,97345.31
2023-05-22T15:04:18.505Z,97339.41
2023-05-22T15:06:45.424Z,97340.16
2023-05-22T15:09:12.205Z,97339.78
2023-05-22T15:11:41.152Z,97327.53
2023-05-22T15:14:07.946Z,97325.56
2023-05-22T15:16:34.682Z,97307.00
2023-05-22T15:19:01.520Z,97319.22
2023-05-22T15:21:28.443Z,97301.84
2023-05-22T15:23:56.532Z,97306.59
2023-05-22T15:26:23.323Z,97316.06
2023-05-22T15:28:50.192Z,97318.47
2023-05-22T15:31:17.059Z,97316.84
2023-05-22T15:33:43.986Z,97312.88
2023-05-22T15:36:10.960Z,97304.25
2023-05-22T15:38:37.690Z,97312.53
2023-05-22T15:41:05.744Z,97310.53
2023-05-22T15:43:32.565Z,97295.16
2023-05-22T15:46:00.028Z,97305.03
2023-05-22T15:48:26.814Z,97312.16
2023-05-22T15:50:53.476Z,97320.03
2023-05-22T15:53:22.158Z,97293.16
2023-05-22T15:55:49.757Z,97276.56
2023-05-22T15:58:16.712Z,97281.31
2023-05-22T16:00:44.009Z,97313.69
2023-05-22T16:03:11.397Z,97294.75
2023-05-22T16:05:41.777Z,97255.97
2023-05-22T16:08:10.711Z,97301.84
2023-05-22T16:10:37.595Z,97301.03
2023-05-22T16:13:10.636Z,97298.63
2023-05-22T16:15:40.012Z,97304.94
2023-05-22T16:18:07.564Z,97302.97
2023-05-22T16:20:35.685Z,97297.84
2023-05-22T16:23:02.581Z,97265.84
2023-05-22T16:25:29.333Z,97286.34
2023-05-22T16:28:00.148Z,97293.44
2023-05-22T16:30:27.194Z,97242.88
2023-05-22T16:32:57.015Z,97292.31
2023-05-22T16:35:26.363Z,97289.53
2023-05-22T16:37:54.988Z,97295.44
2023-05-22T16:40:22.674Z,97239.34
2023-05-22T16:42:52.174Z,97238.13
2023-05-22T16:45:23.691Z,97272.13
2023-05-22T16:48:00.406Z,97255.13
2023-05-22T16:50:30.540Z,97300.94
2023-05-22T16:52:57.525Z,97229.00
2023-05-22T16:55:24.394Z,97232.97
2023-05-22T16:57:53.574Z,97268.47
2023-05-22T17:00:25.391Z,97302.88
2023-05-22T17:02:52.928Z,97299.28
2023-05-22T17:05:20.637Z,97304.81
2023-05-22T17:07:47.548Z,97300.88
2023-05-22T17:10:14.296Z,97262.91
2023-05-22T17:12:41.241Z,97300.03
2023-05-22T17:15:16.087Z,97306.28
2023-05-22T17:17:43.132Z,97303.53
2023-05-22T17:20:13.837Z,97296.78
2023-05-22T17:22:40.776Z,97281.72
2023-05-22T17:25:08.291Z,97299.44
2023-05-22T17:27:36.609Z,97280.47
2023-05-22T17:30:08.617Z,97293.47
2023-05-22T17:32:43.988Z,97290.25
2023-05-22T17:35:11.364Z,97272.47
2023-05-22T17:37:40.019Z,97307.19
2023-05-22T17:40:09.505Z,97298.84
2023-05-22T17:42:36.403Z,97289.72
2023-05-22T17:45:03.127Z,97287.72
2023-05-22T17:47:29.994Z,97286.03
2023-05-22T17:49:56.883Z,97297.88
2023-05-22T17:52:24.090Z,97298.22
2023-05-22T17:54:54.920Z,97291.44
2023-05-22T17:57:26.664Z,97296.13
2023-05-22T17:59:53.360Z,97299.25
2023-05-22T18:02:20.480Z,97296.00
2023-05-22T18:04:48.652Z,97298.34
2023-05-22T18:07:17.317Z,97300.66
2023-05-22T18:09:44.128Z,97296.59
2023-05-22T18:12:17.894Z,97283.84
2023-05-22T18:15:05.585Z,97286.16
2023-05-22T18:17:33.188Z,97292.38
2023-05-22T18:20:01.138Z,97286.25
2023-05-22T18:22:27.847Z,97293.38
2023-05-22T18:24:54.588Z,97297.28
2023-05-22T18:27:27.131Z,97291.63
2023-05-22T18:29:56.146Z,97292.34
2023-05-22T18:32:30.373Z,97286.38
2023-05-22T18:34:58.809Z,97269.25
2023-05-22T18:37:29.461Z,97279.13
2023-05-22T18:39:56.604Z,97281.34
2023-05-22T18:42:25.505Z,97271.00
2023-05-22T18:44:53.121Z,97279.25
2023-05-22T18:47:29.663Z,97279.13
2023-05-22T18:49:56.650Z,97283.81
2023-05-22T18:52:23.431Z,97267.84
2023-05-22T18:54:50.308Z,97288.28
2023-05-22T18:57:17.156Z,97292.59
2023-05-22T18:59:43.973Z,97281.50
2023-05-22T19:02:11.231Z,97287.00
2023-05-22T19:04:38.108Z,97281.44
2023-05-22T19:07:05.231Z,97290.41
2023-05-22T19:09:32.002Z,97283.94
2023-05-22T19:12:01.395Z,97280.28
2023-05-22T19:14:29.780Z,97284.88
2023-05-22T19:17:02.945Z,97251.03
2023-05-22T19:19:30.586Z,97279.97
2023-05-22T19:21:57.319Z,97279.09
2023-05-22T19:24:24.036Z,97282.09
2023-05-22T19:26:50.872Z,97290.66
2023-05-22T19:29:17.661Z,97285.13
2023-05-22T19:31:45.327Z,97297.63
2023-05-22T19:34:12.186Z,97290.84
2023-05-22T19:36:38.910Z,97294.38
2023-05-22T19:39:05.644Z,97271.53
2023-05-22T19:41:32.396Z,97284.66
2023-05-22T19:43:59.091Z,97285.81
2023-05-22T19:46:25.959Z,97285.38
2023-05-22T19:48:53.208Z,97259.84
2023-05-22T19:51:19.997Z,97287.84
2023-05-22T19:53:46.724Z,97283.59
2023-05-22T19:56:13.464Z,97283.06
2023-05-22T19:58:40.146Z,97293.16
2023-05-22T20:01:06.893Z,97272.44
2023-05-22T20:03:34.219Z,97280.34
2023-05-22T20:06:01.043Z,97277.50
2023-05-22T20:08:28.679Z,97271.22
2023-05-22T20:10:55.453Z,97285.31
2023-05-22T20:13:22.175Z,97286.38
2023-05-22T20:15:51.404Z,97285.34
2023-05-22T20:18:18.764Z,97271.53
2023-05-22T20:20:45.624Z,97282.88
2023-05-22T20:23:12.342Z,97272.50
2023-05-22T20:25:39.337Z,97277.63
2023-05-22T20:28:06.600Z,97272.00
2023-05-22T20:30:33.523Z,97279.06
2023-05-22T20:33:01.256Z,97276.38
2023-05-22T20:35:30.704Z,97271.34
2023-05-22T20:38:02.639Z,97250.66
2023-05-22T20:40:32.507Z,97258.13
2023-05-22T20:43:02.570Z,97284.34
2023-05-22T20:45:32.941Z,97279.94
2023-05-22T20:47:59.764Z,97292.50
2023-05-22T20:50:27.355Z,97286.47
2023-05-22T20:52:54.320Z,97277.75
2023-05-22T20:55:21.081Z,97273.78
2023-05-22T20:57:47.898Z,97278.03
2023-05-22T21:00:14.910Z,97277.66
2023-05-22T21:02:41.824Z,97269.56
2023-05-22T21:05:09.065Z,97265.59
2023-05-22T21:07:35.898Z,97281.22
2023-05-22T21:10:03.148Z,97266.66
2023-05-22T21:12:30.064Z,97279.13
2023-05-22T21:14:56.913Z,97269.50
2023-05-22T21:17:25.013Z,97272.63
2023-05-22T21:19:52.016Z,97273.31
2023-05-22T21:22:18.858Z,97273.94
2023-05-22T21:24:45.649Z,97250.38
2023-05-22T21:27:12.582Z,97226.97
2023-05-22T21:29:39.316Z,97252.09
2023-05-22T21:32:06.495Z,97238.16
2023-05-22T21:34:33.218Z,97267.25
2023-05-22T21:37:00.008Z,97259.22
2023-05-22T21:39:26.717Z,97271.06
2023-05-22T21:41:53.458Z,97271.31
2023-05-22T21:44:20.165Z,97265.31
2023-05-22T21:46:47.081Z,97253.31
2023-05-22T21:49:13.928Z,97264.78
2023-05-22T21:51:40.637Z,97255.03
2023-05-22T21:54:07.462Z,97267.28
2023-05-22T21:56:34.241Z,97254.84
2023-05-22T21:59:01.121Z,97248.53
2023-05-22T22:01:27.997Z,97267.19
2023-05-22T22:03:55.808Z,97264.00
2023-05-22T22:06:22.706Z,97267.41
2023-05-22T22:08:49.483Z,97264.25
2023-05-22T22:11:16.306Z,97255.59
2023-05-22T22:13:43.121Z,97259.31
2023-05-22T22:16:09.879Z,97258.56
2023-05-22T22:18:37.725Z,97240.38
2023-05-22T22:21:04.748Z,97242.91
2023-05-22T22:23:31.584Z,97206.59
2023-05-22T22:25:58.376Z,97239.09
2023-05-22T22:28:25.140Z,97217.41
2023-05-22T22:30:55.254Z,97235.25
2023-05-22T22:33:25.613Z,97242.84
2023-05-22T22:35:52.325Z,97246.72
2023-05-22T22:38:19.216Z,97251.63
2023-05-22T22:40:45.989Z,97230.84
2023-05-22T22:43:12.836Z,97238.66
2023-05-22T22:45:42.614Z,97246.63
2023-05-22T22:48:09.486Z,97228.66
2023-05-22T22:50:36.319Z,97236.25
2023-05-22T22:53:03.081Z,97226.38
2023-05-22T22:55:29.853Z,97242.03
2023-05-22T22:57:56.784Z,97238.44
2023-05-22T23:00:29.900Z,97242.53
2023-05-22T23:02:56.844Z,97223.34
2023-05-22T23:05:23.639Z,97234.56
2023-05-22T23:07:50.388Z,97228.22
2023-05-22T23:10:18.168Z,97238.66
2023-05-22T23:12:44.943Z,97229.34
2023-05-22T23:15:13.580Z,97234.22
2023-05-22T23:17:42.218Z,97188.78
2023-05-22T23:20:11.105Z,97237.16
2023-05-22T23:22:37.911Z,97226.16
2023-05-22T23:25:05.005Z,97228.38
2023-05-22T23:27:31.898Z,97227.38
2023-05-22T23:29:58.880Z,97213.59
2023-05-22T23:32:25.635Z,97206.53
2023-05-22T23:34:52.414Z,97216.84
2023-05-22T23:37:19.136Z,97205.94
2023-05-22T23:39:50.851Z,97214.56
2023-05-22T23:42:17.820Z,97206.38
2023-05-22T23:44:44.578Z,97194.78
2023-05-22T23:47:12.757Z,97188.22
2023-05-22T23:49:39.455Z,97202.84
2023-05-22T23:52:06.960Z,97192.59
2023-05-22T23:54:33.782Z,97167.66
2023-05-22T23:57:00.644Z,97176.31
2023-05-22T23:59:27.305Z,97202.34
